PAPM Airport Information

Runway Information
Runway 09 Length 1924 ft width 50 ft
Elevation 15 ft Threshold 0 ft Heading 108
Runway 27 Length 1924 ft Width 50 ft
Elevation 9 ft Threshold 0 ft Heading 288
Runway 13 Length 3304 ft width 50 ft
Elevation 11 ft Threshold 0 ft Heading 154
Runway 31 Length 3304 ft Width 50 ft
Elevation 11 ft Threshold 0 ft Heading 334
Airport Frequencies
Type A/D Name ANCHORAGE Frequency 127.6 MHZ
Type AWOS Name AWOS THREE Frequency 118.375 MHZ
Type CTAF Name CTAF Frequency 122.8 MHZ
Type RDO Name KENAI RDO Frequency 122.5 MHZ
Airport Navaids
Airport Weather Information & NOTAM
ADDS - METARS form results

(1029 UTC 21 May 2019)
Data provider http://aviationweather.gov/metar/data/
 
METAR text: PAPM 210956Z AUTO 00000KT 10SM FEW020 OVC075 06/03 A2989 RMK AO2 SLP124 T00610033
Conditions at: PAPM (PLATINUM , AK, US) observed 0956 UTC 21 May 2019
Temperature: 6.1°C (43°F)
Dewpoint: 3.3°C (38°F) [RH = 82%]
Pressure (altimeter): 29.89 inches Hg (1012.3 mb)
[Sea-level pressure: 1012.4 mb]
Winds: calm
Visibility: 10 or more miles (16+ km)
Ceiling: 7500 feet AGL
Clouds: few clouds at 2000 feet AGL
overcast cloud deck at 7500 feet AGL
Weather: automated observation with no human augmentation;
there may or may not be significant weather present at this time

METAR text: PAPM 210953Z AUTO 12003KT 10SM SCT020 OVC075 06/03 A2989 RMK AO2
Conditions at: PAPM (PLATINUM , AK, US) observed 0953 UTC 21 May 2019
Temperature: 6.0°C (43°F)
Dewpoint: 3.0°C (37°F) [RH = 81%]
Pressure (altimeter): 29.89 inches Hg (1012.3 mb)
Winds: from the ESE (120 degrees) at 3 MPH (3 knots; 1.5 m/s)
Visibility: 10 or more miles (16+ km)
Ceiling: 7500 feet AGL
Clouds: scattered clouds at 2000 feet AGL
overcast cloud deck at 7500 feet AGL
Weather: automated observation with no human augmentation;
there may or may not be significant weather present at this time